sensor_id;sensor_type;location;lat;lon;timestamp;pressure;altitude;pressure_sealevel;temperature;humidity
21276;BME280;36472;52.170;20.884;2023-01-26T00:00:18;101406.56;;;1.46;91.50
21276;BME280;36472;52.170;20.884;2023-01-26T00:03:08;101397.97;;;1.44;91.28
21276;BME280;36472;52.170;20.884;2023-01-26T00:05:38;101399.75;;;1.39;90.86
21276;BME280;36472;52.170;20.884;2023-01-26T00:08:07;101389.38;;;1.42;91.39
21276;BME280;36472;52.170;20.884;2023-01-26T00:10:38;101397.13;;;1.44;91.78
21276;BME280;36472;52.170;20.884;2023-01-26T00:13:09;101388.47;;;1.45;91.62
21276;BME280;36472;52.170;20.884;2023-01-26T00:15:38;101387.56;;;1.47;91.14
21276;BME280;36472;52.170;20.884;2023-01-26T00:18:09;101385.88;;;1.43;91.32
21276;BME280;36472;52.170;20.884;2023-01-26T00:20:38;101392.72;;;1.51;90.74
21276;BME280;36472;52.170;20.884;2023-01-26T00:23:07;101387.56;;;1.47;90.93
21276;BME280;36472;52.170;20.884;2023-01-26T00:25:37;101386.75;;;1.45;90.94
21276;BME280;36472;52.170;20.884;2023-01-26T00:28:07;101389.34;;;1.45;91.18
21276;BME280;36472;52.170;20.884;2023-01-26T00:30:36;101387.59;;;1.44;91.28
21276;BME280;36472;52.170;20.884;2023-01-26T00:33:05;101387.59;;;1.44;91.13
21276;BME280;36472;52.170;20.884;2023-01-26T00:35:36;101390.22;;;1.43;90.94
21276;BME280;36472;52.170;20.884;2023-01-26T00:38:05;101383.25;;;1.48;91.23
21276;BME280;36472;52.170;20.884;2023-01-26T00:40:34;101385.03;;;1.43;91.22
21276;BME280;36472;52.170;20.884;2023-01-26T00:43:03;101379.03;;;1.39;91.58
21276;BME280;36472;52.170;20.884;2023-01-26T00:45:34;101377.38;;;1.35;91.74
21276;BME280;36472;52.170;20.884;2023-01-26T00:48:05;101378.22;;;1.34;91.57
21276;BME280;36472;52.170;20.884;2023-01-26T00:50:36;101371.31;;;1.35;91.59
21276;BME280;36472;52.170;20.884;2023-01-26T00:53:05;101367.75;;;1.43;91.62
21276;BME280;36472;52.170;20.884;2023-01-26T00:55:34;101366.91;;;1.41;92.15
21276;BME280;36472;52.170;20.884;2023-01-26T00:58:06;101363.50;;;1.39;92.02
21276;BME280;36472;52.170;20.884;2023-01-26T01:00:37;101364.31;;;1.41;92.45
21276;BME280;36472;52.170;20.884;2023-01-26T01:03:07;101368.66;;;1.42;92.14
21276;BME280;36472;52.170;20.884;2023-01-26T01:05:37;101356.63;;;1.37;92.11
21276;BME280;36472;52.170;20.884;2023-01-26T01:08:06;101368.59;;;1.47;91.95
21276;BME280;36472;52.170;20.884;2023-01-26T01:10:35;101364.28;;;1.46;92.48
21276;BME280;36472;52.170;20.884;2023-01-26T01:13:04;101373.72;;;1.48;92.23
21276;BME280;36472;52.170;20.884;2023-01-26T01:15:33;101364.25;;;1.49;92.65
21276;BME280;36472;52.170;20.884;2023-01-26T01:18:02;101371.94;;;1.54;92.25
21276;BME280;36472;52.170;20.884;2023-01-26T01:20:31;101365.94;;;1.52;92.39
21276;BME280;36472;52.170;20.884;2023-01-26T01:23:02;101361.56;;;1.54;91.99
21276;BME280;36472;52.170;20.884;2023-01-26T01:25:31;101355.59;;;1.50;92.06
21276;BME280;36472;52.170;20.884;2023-01-26T01:28:01;101353.91;;;1.47;92.26
21276;BME280;36472;52.170;20.884;2023-01-26T01:30:30;101347.88;;;1.47;92.32
21276;BME280;36472;52.170;20.884;2023-01-26T01:32:59;101342.59;;;1.52;92.55
21276;BME280;36472;52.170;20.884;2023-01-26T01:35:28;101328.81;;;1.49;92.67
21276;BME280;36472;52.170;20.884;2023-01-26T01:37:57;101320.16;;;1.52;92.43
21276;BME280;36472;52.170;20.884;2023-01-26T01:40:27;101314.81;;;1.66;92.29
21276;BME280;36472;52.170;20.884;2023-01-26T01:42:56;101318.28;;;1.62;92.32
21276;BME280;36472;52.170;20.884;2023-01-26T01:45:42;101317.44;;;1.61;92.85
21276;BME280;36472;52.170;20.884;2023-01-26T01:48:22;101311.34;;;1.64;92.84
21276;BME280;36472;52.170;20.884;2023-01-26T01:50:57;101308.75;;;1.65;92.74
21276;BME280;36472;52.170;20.884;2023-01-26T01:53:31;101304.47;;;1.63;92.75
21276;BME280;36472;52.170;20.884;2023-01-26T01:56:08;101296.75;;;1.58;92.83
21276;BME280;36472;52.170;20.884;2023-01-26T01:58:41;101296.72;;;1.61;92.63
21276;BME280;36472;52.170;20.884;2023-01-26T02:01:11;101286.38;;;1.58;93.06
21276;BME280;36472;52.170;20.884;2023-01-26T02:03:43;101286.34;;;1.61;92.93
21276;BME280;36472;52.170;20.884;2023-01-26T02:06:16;101284.47;;;1.73;93.10
21276;BME280;36472;52.170;20.884;2023-01-26T02:08:50;101287.13;;;1.68;92.57
21276;BME280;36472;52.170;20.884;2023-01-26T02:11:27;101284.56;;;1.65;92.72
21276;BME280;36472;52.170;20.884;2023-01-26T02:14:06;101291.50;;;1.64;93.04
21276;BME280;36472;52.170;20.884;2023-01-26T02:16:35;101283.81;;;1.57;92.70
21276;BME280;36472;52.170;20.884;2023-01-26T02:19:17;101282.13;;;1.56;92.74
21276;BME280;36472;52.170;20.884;2023-01-26T02:21:53;101282.16;;;1.53;93.35
21276;BME280;36472;52.170;20.884;2023-01-26T02:24:33;101283.81;;;1.57;93.55
21276;BME280;36472;52.170;20.884;2023-01-26T02:27:05;101280.31;;;1.61;93.67
21276;BME280;36472;52.170;20.884;2023-01-26T02:29:34;101281.75;;;1.80;93.53
21276;BME280;36472;52.170;20.884;2023-01-26T02:32:04;101273.22;;;1.72;93.08
21276;BME280;36472;52.170;20.884;2023-01-26T02:34:33;101274.16;;;1.70;93.31
21276;BME280;36472;52.170;20.884;2023-01-26T02:37:02;101269.81;;;1.70;93.52
21276;BME280;36472;52.170;20.884;2023-01-26T02:39:43;101267.19;;;1.72;93.43
21276;BME280;36472;52.170;20.884;2023-01-26T02:42:19;101251.66;;;1.72;92.97
21276;BME280;36472;52.170;20.884;2023-01-26T02:45:12;101261.97;;;1.75;93.30
21276;BME280;36472;52.170;20.884;2023-01-26T02:47:43;101255.03;;;1.75;93.34
21276;BME280;36472;52.170;20.884;2023-01-26T02:50:14;101262.75;;;1.80;92.98
21276;BME280;36472;52.170;20.884;2023-01-26T02:52:43;101255.00;;;1.78;92.76
21276;BME280;36472;52.170;20.884;2023-01-26T02:55:19;101262.75;;;1.80;92.96
21276;BME280;36472;52.170;20.884;2023-01-26T02:57:56;101251.47;;;1.82;93.09
21276;BME280;36472;52.170;20.884;2023-01-26T03:00:29;101242.88;;;1.80;93.40
21276;BME280;36472;52.170;20.884;2023-01-26T03:03:00;101231.69;;;1.77;93.07
21276;BME280;36472;52.170;20.884;2023-01-26T03:05:30;101235.78;;;1.92;92.97
21276;BME280;36472;52.170;20.884;2023-01-26T03:07:59;101232.44;;;1.85;92.69
21276;BME280;36472;52.170;20.884;2023-01-26T03:10:35;101227.34;;;1.79;92.94
21276;BME280;36472;52.170;20.884;2023-01-26T03:13:07;101229.09;;;1.78;92.55
21276;BME280;36472;52.170;20.884;2023-01-26T03:15:36;101224.72;;;1.82;92.62
21276;BME280;36472;52.170;20.884;2023-01-26T03:18:17;101226.44;;;1.83;92.39
21276;BME280;36472;52.170;20.884;2023-01-26T03:21:08;101228.16;;;1.82;93.17
21276;BME280;36472;52.170;20.884;2023-01-26T03:23:55;101215.19;;;1.82;92.73
21276;BME280;36472;52.170;20.884;2023-01-26T03:26:43;101219.53;;;1.82;92.83
21276;BME280;36472;52.170;20.884;2023-01-26T03:29:33;101213.47;;;1.83;93.20
21276;BME280;36472;52.170;20.884;2023-01-26T03:32:03;101210.91;;;1.81;93.04
21276;BME280;36472;52.170;20.884;2023-01-26T03:34:33;101209.13;;;1.83;92.86
21276;BME280;36472;52.170;20.884;2023-01-26T03:37:04;101205.75;;;1.78;92.43
21276;BME280;36472;52.170;20.884;2023-01-26T03:39:49;101200.69;;;1.71;92.80
21276;BME280;36472;52.170;20.884;2023-01-26T03:42:37;101196.38;;;1.71;93.02
21276;BME280;36472;52.170;20.884;2023-01-26T03:45:25;101203.28;;;1.71;92.87
21276;BME280;36472;52.170;20.884;2023-01-26T03:48:12;101197.19;;;1.73;92.65
21276;BME280;36472;52.170;20.884;2023-01-26T03:50:59;101192.03;;;1.72;92.90
21276;BME280;36472;52.170;20.884;2023-01-26T03:53:46;101188.66;;;1.66;93.13
21276;BME280;36472;52.170;20.884;2023-01-26T03:56:33;101184.44;;;1.61;93.30
21276;BME280;36472;52.170;20.884;2023-01-26T03:59:08;101181.84;;;1.61;93.29
21276;BME280;36472;52.170;20.884;2023-01-26T04:01:44;101185.13;;;1.72;93.30
21276;BME280;36472;52.170;20.884;2023-01-26T04:04:32;101183.47;;;1.68;93.39
21276;BME280;36472;52.170;20.884;2023-01-26T04:07:23;101177.34;;;1.72;93.29
21276;BME280;36472;52.170;20.884;2023-01-26T04:10:10;101174.75;;;1.72;93.77
21276;BME280;36472;52.170;20.884;2023-01-26T04:12:39;101174.75;;;1.71;93.55
21276;BME280;36472;52.170;20.884;2023-01-26T04:15:18;101176.50;;;1.70;93.46
21276;BME280;36472;52.170;20.884;2023-01-26T04:18:07;101166.09;;;1.75;93.13
21276;BME280;36472;52.170;20.884;2023-01-26T04:20:55;101178.28;;;1.68;93.05
21276;BME280;36472;52.170;20.884;2023-01-26T04:23:43;101180.88;;;1.68;93.58
21276;BME280;36472;52.170;20.884;2023-01-26T04:26:13;101189.44;;;1.72;92.72
21276;BME280;36472;52.170;20.884;2023-01-26T04:28:43;101179.25;;;1.61;93.20
21276;BME280;36472;52.170;20.884;2023-01-26T04:31:12;101174.94;;;1.60;93.39
21276;BME280;36472;52.170;20.884;2023-01-26T04:33:45;101188.72;;;1.63;93.26
21276;BME280;36472;52.170;20.884;2023-01-26T04:36:15;101180.13;;;1.60;93.48
21276;BME280;36472;52.170;20.884;2023-01-26T04:38:47;101172.50;;;1.51;93.67
21276;BME280;36472;52.170;20.884;2023-01-26T04:41:19;101173.34;;;1.51;94.01
21276;BME280;36472;52.170;20.884;2023-01-26T04:43:54;101171.63;;;1.50;93.68
21276;BME280;36472;52.170;20.884;2023-01-26T04:46:24;101180.16;;;1.58;94.29
21276;BME280;36472;52.170;20.884;2023-01-26T04:48:54;101174.91;;;1.63;94.17
21276;BME280;36472;52.170;20.884;2023-01-26T04:51:24;101180.97;;;1.60;94.00
21276;BME280;36472;52.170;20.884;2023-01-26T04:53:53;101178.31;;;1.65;93.88
21276;BME280;36472;52.170;20.884;2023-01-26T04:56:26;101168.00;;;1.62;93.93
21276;BME280;36472;52.170;20.884;2023-01-26T04:58:59;101168.91;;;1.59;93.96
21276;BME280;36472;52.170;20.884;2023-01-26T05:01:30;101166.31;;;1.61;93.71
21276;BME280;36472;52.170;20.884;2023-01-26T05:04:03;101168.91;;;1.61;93.97
21276;BME280;36472;52.170;20.884;2023-01-26T05:06:33;101166.28;;;1.62;94.26
21276;BME280;36472;52.170;20.884;2023-01-26T05:09:03;101161.09;;;1.62;94.43
21276;BME280;36472;52.170;20.884;2023-01-26T05:11:34;101159.41;;;1.60;94.60
21276;BME280;36472;52.170;20.884;2023-01-26T05:14:20;101168.00;;;1.62;94.41
21276;BME280;36472;52.170;20.884;2023-01-26T05:17:22;101174.94;;;1.60;94.30
21276;BME280;36472;52.170;20.884;2023-01-26T05:20:02;101156.06;;;1.52;94.34
21276;BME280;36472;52.170;20.884;2023-01-26T05:22:39;101147.47;;;1.49;94.82
21276;BME280;36472;52.170;20.884;2023-01-26T05:25:27;101154.31;;;1.54;95.16
21276;BME280;36472;52.170;20.884;2023-01-26T05:28:02;101155.97;;;1.58;94.85
21276;BME280;36472;52.170;20.884;2023-01-26T05:30:31;101157.63;;;1.62;95.02
21276;BME280;36472;52.170;20.884;2023-01-26T05:33:02;101153.38;;;1.59;94.98
21276;BME280;36472;52.170;20.884;2023-01-26T05:35:33;101157.66;;;1.60;94.66
21276;BME280;36472;52.170;20.884;2023-01-26T05:38:05;101151.59;;;1.63;94.75
21276;BME280;36472;52.170;20.884;2023-01-26T05:40:34;101151.59;;;1.61;94.60
21276;BME280;36472;52.170;20.884;2023-01-26T05:43:03;101149.00;;;1.63;94.65
21276;BME280;36472;52.170;20.884;2023-01-26T05:46:08;101149.06;;;1.57;94.81
21276;BME280;36472;52.170;20.884;2023-01-26T05:48:41;101142.25;;;1.53;94.83
21276;BME280;36472;52.170;20.884;2023-01-26T05:51:12;101150.81;;;1.58;95.27
21276;BME280;36472;52.170;20.884;2023-01-26T05:53:41;101149.84;;;1.62;94.90
21276;BME280;36472;52.170;20.884;2023-01-26T05:56:10;101155.03;;;1.63;94.89
21276;BME280;36472;52.170;20.884;2023-01-26T05:58:44;101153.31;;;1.62;94.99
21276;BME280;36472;52.170;20.884;2023-01-26T06:01:13;101159.31;;;1.66;94.95
21276;BME280;36472;52.170;20.884;2023-01-26T06:03:49;101156.75;;;1.64;94.44
21276;BME280;36472;52.170;20.884;2023-01-26T06:06:20;101173.13;;;1.66;95.02
21276;BME280;36472;52.170;20.884;2023-01-26T06:08:56;101164.50;;;1.66;94.56
21276;BME280;36472;52.170;20.884;2023-01-26T06:11:32;101164.50;;;1.64;94.87
21276;BME280;36472;52.170;20.884;2023-01-26T06:14:12;101162.78;;;1.65;95.02
21276;BME280;36472;52.170;20.884;2023-01-26T06:16:43;101157.59;;;1.65;94.49
21276;BME280;36472;52.170;20.884;2023-01-26T06:19:12;101164.53;;;1.63;95.02
21276;BME280;36472;52.170;20.884;2023-01-26T06:21:46;101161.84;;;1.69;94.67
21276;BME280;36472;52.170;20.884;2023-01-26T06:24:15;101164.41;;;1.69;94.81
21276;BME280;36472;52.170;20.884;2023-01-26T06:26:46;101168.75;;;1.70;94.58
21276;BME280;36472;52.170;20.884;2023-01-26T06:29:17;101160.16;;;1.66;94.62
21276;BME280;36472;52.170;20.884;2023-01-26T06:31:46;101161.75;;;1.75;94.27
21276;BME280;36472;52.170;20.884;2023-01-26T06:34:16;101157.53;;;1.68;94.80
21276;BME280;36472;52.170;20.884;2023-01-26T06:36:46;101150.69;;;1.64;95.11
21276;BME280;36472;52.170;20.884;2023-01-26T06:39:25;101157.59;;;1.63;94.76
21276;BME280;36472;52.170;20.884;2023-01-26T06:41:54;101156.03;;;1.53;95.00
21276;BME280;36472;52.170;20.884;2023-01-26T06:44:23;101160.28;;;1.59;94.83
21276;BME280;36472;52.170;20.884;2023-01-26T06:46:52;101155.09;;;1.59;94.96
21276;BME280;36472;52.170;20.884;2023-01-26T06:49:23;101155.78;;;1.70;94.97
21276;BME280;36472;52.170;20.884;2023-01-26T06:51:58;101155.88;;;1.64;94.74
21276;BME280;36472;52.170;20.884;2023-01-26T06:54:42;101153.97;;;1.75;94.33
21276;BME280;36472;52.170;20.884;2023-01-26T06:57:34;101146.25;;;1.71;94.70
21276;BME280;36472;52.170;20.884;2023-01-26T07:00:12;101154.06;;;1.69;94.74
21276;BME280;36472;52.170;20.884;2023-01-26T07:02:53;101147.19;;;1.66;94.70
21276;BME280;36472;52.170;20.884;2023-01-26T07:05:22;101142.09;;;1.60;94.78
21276;BME280;36472;52.170;20.884;2023-01-26T07:07:54;101145.56;;;1.61;95.13
21276;BME280;36472;52.170;20.884;2023-01-26T07:10:24;101155.88;;;1.64;95.61
21276;BME280;36472;52.170;20.884;2023-01-26T07:12:52;101143.75;;;1.67;95.15
21276;BME280;36472;52.170;20.884;2023-01-26T07:15:22;101149.84;;;1.62;94.47
21276;BME280;36472;52.170;20.884;2023-01-26T07:17:50;101146.41;;;1.63;94.68
21276;BME280;36472;52.170;20.884;2023-01-26T07:20:21;101149.00;;;1.63;94.80
21276;BME280;36472;52.170;20.884;2023-01-26T07:22:51;101147.28;;;1.60;94.82
21276;BME280;36472;52.170;20.884;2023-01-26T07:25:21;101142.09;;;1.62;94.56
21276;BME280;36472;52.170;20.884;2023-01-26T07:27:55;101135.38;;;1.48;94.08
21276;BME280;36472;52.170;20.884;2023-01-26T07:30:25;101136.34;;;1.43;94.11
21276;BME280;36472;52.170;20.884;2023-01-26T07:32:54;101137.16;;;1.46;94.28
21276;BME280;36472;52.170;20.884;2023-01-26T07:35:23;101128.38;;;1.55;94.47
21276;BME280;36472;52.170;20.884;2023-01-26T07:37:53;101123.09;;;1.61;94.46
21276;BME280;36472;52.170;20.884;2023-01-26T07:40:24;101121.31;;;1.65;93.92
21276;BME280;36472;52.170;20.884;2023-01-26T07:42:54;101125.72;;;1.60;93.15
21276;BME280;36472;52.170;20.884;2023-01-26T07:45:44;101116.22;;;1.59;93.49
21276;BME280;36472;52.170;20.884;2023-01-26T07:48:13;101118.81;;;1.59;93.46
21276;BME280;36472;52.170;20.884;2023-01-26T07:50:43;101122.19;;;1.64;93.51
21276;BME280;36472;52.170;20.884;2023-01-26T07:53:17;101121.28;;;1.68;93.16
21276;BME280;36472;52.170;20.884;2023-01-26T07:55:48;101122.03;;;1.75;92.86
21276;BME280;36472;52.170;20.884;2023-01-26T07:58:17;101123.09;;;1.63;92.27
21276;BME280;36472;52.170;20.884;2023-01-26T08:00:46;101123.09;;;1.63;92.08
21276;BME280;36472;52.170;20.884;2023-01-26T08:03:15;101122.94;;;1.71;91.90
21276;BME280;36472;52.170;20.884;2023-01-26T08:05:44;101130.59;;;1.78;91.72
21276;BME280;36472;52.170;20.884;2023-01-26T08:08:16;101129.66;;;1.82;91.04
21276;BME280;36472;52.170;20.884;2023-01-26T08:10:46;101117.78;;;1.69;90.95
21276;BME280;36472;52.170;20.884;2023-01-26T08:13:14;101103.09;;;1.71;90.73
21276;BME280;36472;52.170;20.884;2023-01-26T08:16:02;101118.47;;;1.80;90.73
21276;BME280;36472;52.170;20.884;2023-01-26T08:18:31;101119.38;;;1.78;90.24
21276;BME280;36472;52.170;20.884;2023-01-26T08:21:00;101115.81;;;1.83;90.18
21276;BME280;36472;52.170;20.884;2023-01-26T08:23:31;101123.38;;;1.96;90.02
21276;BME280;36472;52.170;20.884;2023-01-26T08:26:01;101121.44;;;2.09;89.52
21276;BME280;36472;52.170;20.884;2023-01-26T08:28:30;101115.50;;;2.02;88.60
21276;BME280;36472;52.170;20.884;2023-01-26T08:31:03;101117.06;;;2.11;88.01
21276;BME280;36472;52.170;20.884;2023-01-26T08:33:33;101114.50;;;2.09;88.09
21276;BME280;36472;52.170;20.884;2023-01-26T08:36:06;101111.25;;;1.96;86.19
21276;BME280;36472;52.170;20.884;2023-01-26T08:38:36;101114.78;;;1.94;85.55
21276;BME280;36472;52.170;20.884;2023-01-26T08:41:06;101116.72;;;1.81;85.45
21276;BME280;36472;52.170;20.884;2023-01-26T08:43:35;101118.22;;;1.93;86.23
21276;BME280;36472;52.170;20.884;2023-01-26T08:46:05;101109.78;;;1.83;85.29
21276;BME280;36472;52.170;20.884;2023-01-26T08:48:34;101117.59;;;1.81;84.94
21276;BME280;36472;52.170;20.884;2023-01-26T08:51:06;101121.81;;;1.85;85.00
21276;BME280;36472;52.170;20.884;2023-01-26T08:53:37;101127.88;;;1.84;84.77
21276;BME280;36472;52.170;20.884;2023-01-26T08:56:09;101123.88;;;1.66;83.92
21276;BME280;36472;52.170;20.884;2023-01-26T08:58:38;101145.22;;;1.81;84.46
21276;BME280;36472;52.170;20.884;2023-01-26T09:01:11;101134.66;;;1.93;84.36
21276;BME280;36472;52.170;20.884;2023-01-26T09:03:41;101127.84;;;1.86;82.89
21276;BME280;36472;52.170;20.884;2023-01-26T09:06:12;101126.72;;;2.01;83.29
21276;BME280;36472;52.170;20.884;2023-01-26T09:08:43;101132.66;;;2.08;83.47
21276;BME280;36472;52.170;20.884;2023-01-26T09:11:13;101133.81;;;1.91;81.31
21276;BME280;36472;52.170;20.884;2023-01-26T09:13:42;101131.06;;;2.02;81.37
21276;BME280;36472;52.170;20.884;2023-01-26T09:16:18;101138.84;;;2.00;82.47
21276;BME280;36472;52.170;20.884;2023-01-26T09:18:49;101144.88;;;2.01;81.55
21276;BME280;36472;52.170;20.884;2023-01-26T09:21:19;101143.22;;;1.98;81.73
21276;BME280;36472;52.170;20.884;2023-01-26T09:23:52;101141.47;;;1.99;81.96
21276;BME280;36472;52.170;20.884;2023-01-26T09:26:23;101146.66;;;1.99;81.31
21276;BME280;36472;52.170;20.884;2023-01-26T09:28:52;101144.97;;;1.96;80.62
21276;BME280;36472;52.170;20.884;2023-01-26T09:31:21;101144.25;;;1.88;81.09
21276;BME280;36472;52.170;20.884;2023-01-26T09:33:50;101132.66;;;2.08;81.50
21276;BME280;36472;52.170;20.884;2023-01-26T09:36:19;101144.66;;;2.13;81.33
21276;BME280;36472;52.170;20.884;2023-01-26T09:38:48;101137.13;;;1.99;81.13
21276;BME280;36472;52.170;20.884;2023-01-26T09:41:42;101138.09;;;1.94;80.47
21276;BME280;36472;52.170;20.884;2023-01-26T09:44:19;101137.03;;;2.05;81.43
21276;BME280;36472;52.170;20.884;2023-01-26T09:47:04;101126.41;;;2.19;81.07
21276;BME280;36472;52.170;20.884;2023-01-26T09:49:46;101117.69;;;2.22;80.91
21276;BME280;36472;52.170;20.884;2023-01-26T09:52:26;101121.03;;;2.29;80.48
21276;BME280;36472;52.170;20.884;2023-01-26T09:54:58;101120.19;;;2.28;79.78
21276;BME280;36472;52.170;20.884;2023-01-26T09:57:39;101117.56;;;2.30;80.05
21276;BME280;36472;52.170;20.884;2023-01-26T10:00:22;101113.50;;;2.15;80.35
21276;BME280;36472;52.170;20.884;2023-01-26T10:03:12;101114.13;;;2.29;80.44
21276;BME280;36472;52.170;20.884;2023-01-26T10:05:49;101107.63;;;2.50;80.48
21276;BME280;36472;52.170;20.884;2023-01-26T10:08:42;101107.53;;;2.56;80.14
21276;BME280;36472;52.170;20.884;2023-01-26T10:11:18;101104.53;;;2.33;78.11
21276;BME280;36472;52.170;20.884;2023-01-26T10:13:58;101101.81;;;2.37;77.50
21276;BME280;36472;52.170;20.884;2023-01-26T10:16:32;101091.88;;;2.17;77.80
21276;BME280;36472;52.170;20.884;2023-01-26T10:19:09;101094.97;;;2.35;78.44
21276;BME280;36472;52.170;20.884;2023-01-26T10:21:46;101093.41;;;2.28;78.06
21276;BME280;36472;52.170;20.884;2023-01-26T10:24:22;101096.09;;;2.21;78.30
21276;BME280;36472;52.170;20.884;2023-01-26T10:26:56;101091.81;;;2.20;77.26
21276;BME280;36472;52.170;20.884;2023-01-26T10:29:26;101087.56;;;2.16;78.29
21276;BME280;36472;52.170;20.884;2023-01-26T10:31:55;101086.53;;;2.23;78.32
21276;BME280;36472;52.170;20.884;2023-01-26T10:34:26;101078.69;;;2.28;77.51
21276;BME280;36472;52.170;20.884;2023-01-26T10:37:04;101082.13;;;2.29;78.34
21276;BME280;36472;52.170;20.884;2023-01-26T10:39:58;101077.13;;;2.19;77.65
21276;BME280;36472;52.170;20.884;2023-01-26T10:42:29;101073.78;;;2.13;78.23
21276;BME280;36472;52.170;20.884;2023-01-26T10:45:04;101072.03;;;2.13;78.43
21276;BME280;36472;52.170;20.884;2023-01-26T10:47:34;101069.38;;;2.18;77.60
21276;BME280;36472;52.170;20.884;2023-01-26T10:50:22;101072.03;;;2.13;78.04
21276;BME280;36472;52.170;20.884;2023-01-26T10:52:59;101064.03;;;2.26;77.96
21276;BME280;36472;52.170;20.884;2023-01-26T10:55:30;101059.97;;;2.12;78.24
21276;BME280;36472;52.170;20.884;2023-01-26T10:58:00;101052.22;;;2.11;78.68
21276;BME280;36472;52.170;20.884;2023-01-26T11:00:32;101038.97;;;2.24;78.56
21276;BME280;36472;52.170;20.884;2023-01-26T11:03:15;101038.72;;;2.37;78.02
21276;BME280;36472;52.170;20.884;2023-01-26T11:06:04;101036.63;;;2.14;77.67
21276;BME280;36472;52.170;20.884;2023-01-26T11:08:35;101034.84;;;2.16;77.72
21276;BME280;36472;52.170;20.884;2023-01-26T11:11:07;101028.72;;;2.18;77.91
21276;BME280;36472;52.170;20.884;2023-01-26T11:14:10;101030.38;;;2.22;77.27
21276;BME280;36472;52.170;20.884;2023-01-26T11:16:46;101026.78;;;2.30;77.73
21276;BME280;36472;52.170;20.884;2023-01-26T11:19:35;101027.34;;;2.42;76.53
21276;BME280;36472;52.170;20.884;2023-01-26T11:22:14;101018.94;;;2.33;76.57
21276;BME280;36472;52.170;20.884;2023-01-26T11:24:56;101024.66;;;2.47;76.37
21276;BME280;36472;52.170;20.884;2023-01-26T11:27:47;101007.66;;;2.34;76.93
21276;BME280;36472;52.170;20.884;2023-01-26T11:30:43;101007.19;;;2.55;76.97
21276;BME280;36472;52.170;20.884;2023-01-26T11:33:29;101006.81;;;2.33;75.83
21276;BME280;36472;52.170;20.884;2023-01-26T11:36:12;101014.66;;;2.29;76.72
21276;BME280;36472;52.170;20.884;2023-01-26T11:38:51;101015.28;;;2.41;76.09
21276;BME280;36472;52.170;20.884;2023-01-26T11:41:40;101000.81;;;1.87;77.01
21276;BME280;36472;52.170;20.884;2023-01-26T11:44:45;100995.41;;;2.00;77.55
21276;BME280;36472;52.170;20.884;2023-01-26T11:47:33;100991.16;;;1.96;77.76
21276;BME280;36472;52.170;20.884;2023-01-26T11:50:29;100994.28;;;2.12;77.51
21276;BME280;36472;52.170;20.884;2023-01-26T11:53:27;100979.06;;;2.37;76.29
21276;BME280;36472;52.170;20.884;2023-01-26T11:56:21;100991.91;;;2.43;76.85
21276;BME280;36472;52.170;20.884;2023-01-26T11:58:57;100983.31;;;2.41;76.17
21276;BME280;36472;52.170;20.884;2023-01-26T12:01:34;100996.19;;;2.44;76.52
21276;BME280;36472;52.170;20.884;2023-01-26T12:04:18;100989.75;;;2.62;76.22
21276;BME280;36472;52.170;20.884;2023-01-26T12:06:56;100987.94;;;2.66;75.41
21276;BME280;36472;52.170;20.884;2023-01-26T12:09:34;100979.16;;;2.70;76.23
21276;BME280;36472;52.170;20.884;2023-01-26T12:12:12;100982.59;;;2.72;76.26
21276;BME280;36472;52.170;20.884;2023-01-26T12:14:49;100977.31;;;2.75;75.66
21276;BME280;36472;52.170;20.884;2023-01-26T12:17:30;100968.88;;;2.67;75.35
21276;BME280;36472;52.170;20.884;2023-01-26T12:20:16;100973.06;;;2.72;75.16
21276;BME280;36472;52.170;20.884;2023-01-26T12:22:59;100968.72;;;2.73;74.41
21276;BME280;36472;52.170;20.884;2023-01-26T12:25:34;100963.00;;;2.58;74.94
21276;BME280;36472;52.170;20.884;2023-01-26T12:28:17;100960.22;;;2.66;75.09
21276;BME280;36472;52.170;20.884;2023-01-26T12:30:57;100968.78;;;2.70;76.47
21276;BME280;36472;52.170;20.884;2023-01-26T12:33:32;100971.13;;;2.82;76.03
21276;BME280;36472;52.170;20.884;2023-01-26T12:36:30;100965.09;;;2.80;75.09
21276;BME280;36472;52.170;20.884;2023-01-26T12:39:12;100963.13;;;2.90;75.49
21276;BME280;36472;52.170;20.884;2023-01-26T12:42:02;100970.44;;;2.74;74.06
21276;BME280;36472;52.170;20.884;2023-01-26T12:44:41;100968.13;;;2.61;74.85
21276;BME280;36472;52.170;20.884;2023-01-26T12:47:17;100973.13;;;2.69;75.98
21276;BME280;36472;52.170;20.884;2023-01-26T12:49:55;100965.38;;;2.68;74.59
21276;BME280;36472;52.170;20.884;2023-01-26T12:52:33;100966.69;;;2.50;74.95
21276;BME280;36472;52.170;20.884;2023-01-26T12:55:15;100973.41;;;2.57;74.72
21276;BME280;36472;52.170;20.884;2023-01-26T12:57:53;100961.56;;;2.45;74.58
21276;BME280;36472;52.170;20.884;2023-01-26T13:00:27;100971.22;;;2.40;75.71
21276;BME280;36472;52.170;20.884;2023-01-26T13:03:02;100968.50;;;2.46;76.14
21276;BME280;36472;52.170;20.884;2023-01-26T13:05:34;100967.53;;;2.50;76.26
21276;BME280;36472;52.170;20.884;2023-01-26T13:08:40;100974.53;;;2.47;75.67
21276;BME280;36472;52.170;20.884;2023-01-26T13:11:42;100969.41;;;2.43;75.58
21276;BME280;36472;52.170;20.884;2023-01-26T13:14:34;100955.50;;;2.46;75.93
21276;BME280;36472;52.170;20.884;2023-01-26T13:17:48;100959.00;;;2.45;76.25
21276;BME280;36472;52.170;20.884;2023-01-26T13:23:40;100956.31;;;2.48;76.42
21276;BME280;36472;52.170;20.884;2023-01-26T13:26:42;100963.34;;;2.45;76.12
21276;BME280;36472;52.170;20.884;2023-01-26T13:29:33;100948.72;;;2.39;76.82
21276;BME280;36472;52.170;20.884;2023-01-26T13:33:01;100945.81;;;2.15;76.88
21276;BME280;36472;52.170;20.884;2023-01-26T13:35:34;100946.59;;;2.19;77.01
21276;BME280;36472;52.170;20.884;2023-01-26T13:38:14;100946.50;;;2.22;77.28